Time;durP1;ratioP1;P1;durP2;ratioP2;P2;SDS_P1;SDS_P2;PMS_P1;PMS_P2;Temp;Humidity;BMP_temperature;BMP_pressure;BME280_temperature;BME280_humidity;BME280_pressure;Samples;Min_cycle;Max_cycle;Signal;HPM_P1;HPM_P2
2022/04/18 00:00:04;;;;;;;33.83;19.87;;;8.50;99.90;;;;;;4994304;28;20496;-76
2022/04/18 00:02:34;;;;;;;34.40;17.07;;;8.50;99.90;;;;;;4993313;28;20429;-76
2022/04/18 00:05:06;;;;;;;28.63;16.90;;;8.50;99.90;;;;;;4999618;28;20461;-76
2022/04/18 00:07:33;;;;;;;28.17;16.53;;;8.60;99.90;;;;;;4989968;28;20491;-76
2022/04/18 00:10:02;;;;;;;25.93;15.30;;;8.90;99.90;;;;;;4993037;28;20484;-76
2022/04/18 00:12:33;;;;;;;33.03;15.50;;;9.00;99.90;;;;;;4990877;28;20444;-77
2022/04/18 00:14:59;;;;;;;24.00;12.50;;;9.00;99.90;;;;;;4992293;28;20440;-77
2022/04/18 00:17:27;;;;;;;28.90;16.47;;;9.00;99.90;;;;;;4993178;28;20464;-75
2022/04/18 00:19:57;;;;;;;37.90;15.20;;;8.90;99.90;;;;;;4992077;28;20444;-74
2022/04/18 00:22:24;;;;;;;40.23;15.70;;;8.90;99.90;;;;;;4995303;28;20837;-74
2022/04/18 00:24:51;;;;;;;21.67;14.83;;;8.90;99.90;;;;;;4996514;28;20439;-76
2022/04/18 00:27:22;;;;;;;35.97;16.87;;;9.00;99.90;;;;;;4989925;28;20988;-75
2022/04/18 00:30:01;;;;;;;23.87;15.33;;;8.90;99.90;;;;;;4990785;28;20444;-76
2022/04/18 00:32:28;;;;;;;29.73;16.50;;;8.80;99.90;;;;;;4989757;28;20428;-76
2022/04/18 00:34:55;;;;;;;29.70;18.90;;;8.80;99.90;;;;;;4994815;28;20461;-75
2022/04/18 00:37:21;;;;;;;28.57;18.07;;;8.80;99.90;;;;;;4991895;28;21156;-75
2022/04/18 00:39:50;;;;;;;33.33;17.13;;;8.60;99.90;;;;;;4989577;28;20744;-74
2022/04/18 00:42:17;;;;;;;29.43;17.70;;;8.60;99.90;;;;;;4986983;28;20431;-76
2022/04/18 00:44:55;;;;;;;34.87;16.00;;;8.60;99.90;;;;;;4994780;28;20436;-76
2022/04/18 00:47:22;;;;;;;31.57;18.00;;;8.60;99.90;;;;;;4995731;28;20481;-74
2022/04/18 00:49:51;;;;;;;27.00;16.03;;;8.50;99.90;;;;;;4995192;28;20452;-75
2022/04/18 00:52:19;;;;;;;38.40;19.10;;;8.40;99.90;;;;;;4983695;28;20441;-75
2022/04/18 00:54:55;;;;;;;43.00;16.07;;;8.40;99.90;;;;;;4999975;28;20517;-75
2022/04/18 00:57:24;;;;;;;42.10;21.57;;;8.40;99.90;;;;;;4994270;28;20485;-76
2022/04/18 00:59:52;;;;;;;43.67;19.23;;;8.40;99.90;;;;;;4988743;28;24539;-75
2022/04/18 01:02:20;;;;;;;52.97;24.37;;;8.40;99.90;;;;;;4996816;28;20458;-76
2022/04/18 01:04:52;;;;;;;46.77;18.87;;;8.40;99.90;;;;;;4990736;28;20552;-75
2022/04/18 01:07:20;;;;;;;46.47;20.83;;;8.30;99.90;;;;;;4991607;28;20470;-74
2022/04/18 01:09:54;;;;;;;27.97;18.70;;;8.30;99.90;;;;;;4992004;28;20467;-75
2022/04/18 01:12:21;;;;;;;31.67;18.80;;;8.30;99.90;;;;;;4988448;28;20439;-77
2022/04/18 01:14:51;;;;;;;37.43;19.93;;;8.30;99.90;;;;;;4994403;28;20461;-76
2022/04/18 01:17:20;;;;;;;38.73;20.00;;;8.20;99.90;;;;;;4992201;28;20461;-76
2022/04/18 01:19:49;;;;;;;35.40;18.00;;;8.00;99.90;;;;;;4993825;28;20452;-75
2022/04/18 01:22:22;;;;;;;35.80;19.73;;;7.90;99.90;;;;;;4996451;28;20424;-75
2022/04/18 01:30:21;;;;;;;44.37;20.10;;;8.10;99.90;;;;;;4991999;28;20427;-75
2022/04/18 01:32:53;;;;;;;27.43;19.13;;;8.00;99.90;;;;;;5000601;28;20918;-75
2022/04/18 01:35:22;;;;;;;31.93;18.33;;;7.90;99.90;;;;;;4996510;28;20502;-75
2022/04/18 01:37:52;;;;;;;30.77;18.60;;;7.80;99.90;;;;;;4994971;28;20507;-75
2022/04/18 01:40:28;;;;;;;52.30;23.20;;;7.80;99.90;;;;;;4991484;28;20466;-75
2022/04/18 01:43:00;;;;;;;32.67;18.80;;;7.80;99.90;;;;;;4992414;28;20531;-75
2022/04/18 01:45:28;;;;;;;32.17;18.10;;;7.80;99.90;;;;;;4991526;28;21040;-76
2022/04/18 01:47:55;;;;;;;53.23;18.90;;;7.60;99.90;;;;;;4988100;28;20568;-75
2022/04/18 01:50:22;;;;;;;28.83;17.60;;;7.90;99.90;;;;;;4994469;28;20520;-75
2022/04/18 01:52:49;;;;;;;39.93;22.30;;;8.00;99.90;;;;;;4986965;28;20431;-75
2022/04/18 01:55:20;;;;;;;25.87;16.93;;;8.00;99.90;;;;;;4992770;28;20469;-76
2022/04/18 01:57:50;;;;;;;33.07;20.70;;;8.00;99.90;;;;;;4988138;28;20458;-76
2022/04/18 02:00:18;;;;;;;34.23;17.90;;;8.00;99.90;;;;;;4989130;28;20448;-74
2022/04/18 02:02:52;;;;;;;36.47;18.90;;;8.00;99.90;;;;;;4989172;28;20462;-77
2022/04/18 02:05:21;;;;;;;31.27;18.80;;;8.00;99.90;;;;;;4995687;28;20536;-74
2022/04/18 02:07:48;;;;;;;29.93;21.20;;;8.10;99.90;;;;;;4987842;28;20566;-76
2022/04/18 02:10:25;;;;;;;28.10;18.37;;;8.00;99.90;;;;;;4988621;28;20447;-74
2022/04/18 02:12:52;;;;;;;30.23;17.80;;;7.90;99.90;;;;;;4986722;28;20428;-74
2022/04/18 02:15:23;;;;;;;29.07;18.97;;;7.80;99.90;;;;;;4989917;28;21470;-76
2022/04/18 02:17:59;;;;;;;38.17;18.63;;;7.80;99.90;;;;;;4989732;28;20454;-76
2022/04/18 02:20:27;;;;;;;47.40;17.63;;;7.80;99.90;;;;;;4991710;28;20501;-75
2022/04/18 02:22:55;;;;;;;39.40;18.60;;;7.60;99.90;;;;;;4989075;28;27289;-75
2022/04/18 02:25:23;;;;;;;25.40;17.80;;;7.30;99.90;;;;;;4983532;28;20478;-75
2022/04/18 02:27:51;;;;;;;33.93;17.60;;;7.40;99.90;;;;;;4985203;28;20460;-76
2022/04/18 02:30:19;;;;;;;43.20;17.80;;;7.60;99.90;;;;;;4985752;28;20784;-75
2022/04/18 02:32:51;;;;;;;33.40;17.50;;;7.50;99.90;;;;;;4989430;28;20440;-76
2022/04/18 02:35:19;;;;;;;36.10;18.63;;;7.30;99.90;;;;;;4990214;28;20458;-75
2022/04/18 02:37:46;;;;;;;40.87;20.87;;;7.40;99.90;;;;;;4989279;28;20522;-76
2022/04/18 02:40:13;;;;;;;38.47;18.90;;;7.40;99.90;;;;;;4985185;28;21116;-76
2022/04/18 02:42:47;;;;;;;31.90;18.13;;;7.30;99.90;;;;;;4985868;28;20485;-76
2022/04/18 02:45:19;;;;;;;30.87;18.33;;;7.30;99.90;;;;;;4991882;28;20450;-76
2022/04/18 02:47:48;;;;;;;47.20;15.90;;;7.20;99.90;;;;;;4992195;28;20938;-76
2022/04/18 02:50:15;;;;;;;34.53;16.83;;;7.10;99.90;;;;;;4987970;28;20477;-75
2022/04/18 02:52:42;;;;;;;30.27;19.07;;;7.10;99.90;;;;;;4990366;28;20442;-75
2022/04/18 02:55:14;;;;;;;31.63;16.27;;;7.20;99.90;;;;;;4994787;28;20458;-75
2022/04/18 02:57:44;;;;;;;41.63;18.37;;;7.10;99.90;;;;;;4984046;28;20490;-76
2022/04/18 03:00:11;;;;;;;32.33;17.07;;;7.10;99.90;;;;;;4988693;28;20460;-75
2022/04/18 03:02:41;;;;;;;28.77;18.53;;;7.10;99.90;;;;;;4995482;28;20451;-75
2022/04/18 03:05:10;;;;;;;35.97;19.40;;;7.20;99.90;;;;;;4991837;28;20877;-75
2022/04/18 03:07:40;;;;;;;38.43;18.57;;;7.10;99.90;;;;;;4992102;28;20489;-74
2022/04/18 03:10:08;;;;;;;39.10;17.70;;;7.00;99.90;;;;;;4996077;28;20579;-76
2022/04/18 03:12:35;;;;;;;36.00;18.07;;;6.90;99.90;;;;;;4993283;28;20465;-76
2022/04/18 03:15:12;;;;;;;28.47;17.07;;;6.90;99.90;;;;;;4999014;28;20465;-76
2022/04/18 03:17:39;;;;;;;26.50;16.20;;;6.50;99.90;;;;;;4991173;28;20470;-76
2022/04/18 03:20:07;;;;;;;31.43;17.40;;;6.50;99.90;;;;;;4994963;28;20435;-76
2022/04/18 03:22:34;;;;;;;26.80;17.53;;;6.50;99.90;;;;;;4992255;28;20449;-77
2022/04/18 03:25:01;;;;;;;27.90;19.60;;;6.60;99.90;;;;;;4995347;28;20428;-76
2022/04/18 03:27:28;;;;;;;24.67;15.43;;;6.50;99.90;;;;;;4991844;28;20456;-76
2022/04/18 03:29:55;;;;;;;29.37;15.80;;;6.50;99.90;;;;;;4997827;28;20573;-76
2022/04/18 03:32:26;;;;;;;25.73;14.20;;;6.50;99.90;;;;;;4990053;28;20457;-76
2022/04/18 03:34:52;;;;;;;27.07;14.37;;;6.50;99.90;;;;;;4991695;28;20490;-76
2022/04/18 03:40:06;;;;;;;35.33;17.53;;;6.60;99.90;;;;;;4987562;28;20479;-76
2022/04/18 03:42:35;;;;;;;33.10;18.03;;;6.80;99.90;;;;;;4990007;28;20488;-75
2022/04/18 03:45:09;;;;;;;38.97;17.27;;;6.80;99.90;;;;;;4987048;28;20441;-74
2022/04/18 03:47:37;;;;;;;24.07;15.57;;;6.80;99.90;;;;;;4993572;28;20485;-76
2022/04/18 03:50:07;;;;;;;25.17;15.83;;;6.70;99.90;;;;;;4991932;28;20596;-74
2022/04/18 03:52:45;;;;;;;26.10;14.90;;;6.60;99.90;;;;;;4989683;28;20433;-74
2022/04/18 03:55:12;;;;;;;29.10;16.97;;;6.40;99.90;;;;;;4995824;28;20448;-76
2022/04/18 03:57:43;;;;;;;20.77;15.20;;;6.40;99.90;;;;;;4990651;28;20489;-74
2022/04/18 04:00:11;;;;;;;42.10;20.20;;;6.40;99.90;;;;;;5000564;28;20466;-76
2022/04/18 04:02:43;;;;;;;31.40;16.80;;;6.30;99.90;;;;;;4990296;28;21207;-74
2022/04/18 04:05:12;;;;;;;21.77;16.23;;;6.00;99.90;;;;;;4983650;28;21032;-75
2022/04/18 04:07:39;;;;;;;27.57;16.60;;;5.60;99.90;;;;;;4988489;28;20456;-76
2022/04/18 04:10:07;;;;;;;32.70;17.47;;;5.50;99.90;;;;;;4987613;28;20484;-75
2022/04/18 04:12:36;;;;;;;25.40;13.70;;;5.80;99.90;;;;;;4984042;28;20478;-74
2022/04/18 04:15:03;;;;;;;42.07;17.00;;;5.90;99.90;;;;;;4982913;28;20465;-76
2022/04/18 04:17:32;;;;;;;26.23;14.80;;;6.00;99.90;;;;;;4987205;28;21228;-76
2022/04/18 04:20:02;;;;;;;30.03;14.80;;;6.00;99.90;;;;;;4988064;28;20428;-75
2022/04/18 04:22:32;;;;;;;23.60;15.47;;;6.10;99.90;;;;;;4989580;28;20948;-75
2022/04/18 04:25:00;;;;;;;32.53;15.97;;;6.20;99.90;;;;;;4991491;28;20503;-75
2022/04/18 04:27:30;;;;;;;21.10;14.80;;;6.20;99.90;;;;;;4991045;28;20482;-75
2022/04/18 04:29:57;;;;;;;27.27;14.07;;;6.00;99.90;;;;;;4991182;28;20456;-75
2022/04/18 04:32:24;;;;;;;23.77;15.03;;;5.90;99.90;;;;;;4990449;28;20440;-74
2022/04/18 04:34:51;;;;;;;24.80;12.40;;;6.00;99.90;;;;;;4989858;28;20525;-75
2022/04/18 04:37:25;;;;;;;16.87;12.60;;;6.10;99.90;;;;;;4994748;28;20485;-74
2022/04/18 04:39:52;;;;;;;27.50;17.40;;;6.00;99.90;;;;;;4987416;28;20433;-74
2022/04/18 04:42:19;;;;;;;24.97;14.63;;;6.00;99.90;;;;;;4990871;28;20549;-75
2022/04/18 04:44:46;;;;;;;48.27;19.40;;;6.00;99.90;;;;;;4989678;28;21350;-75
2022/04/18 04:47:12;;;;;;;22.33;13.93;;;6.00;99.90;;;;;;4988157;28;20465;-74
2022/04/18 04:49:39;;;;;;;29.33;15.00;;;5.90;99.90;;;;;;5038932;22;20466;-72
2022/04/18 04:52:06;;;;;;;22.10;15.43;;;5.90;99.90;;;;;;5031462;28;20468;-71
2022/04/18 04:54:36;;;;;;;30.47;14.50;;;5.90;99.90;;;;;;5029890;28;20434;-69
2022/04/18 04:57:02;;;;;;;41.70;15.37;;;5.80;99.90;;;;;;5035603;28;20954;-70
2022/04/18 04:59:29;;;;;;;27.07;16.40;;;5.50;99.90;;;;;;5027024;28;20816;-70
2022/04/18 05:01:56;;;;;;;35.77;17.30;;;5.60;99.90;;;;;;5026555;28;21834;-70
2022/04/18 05:04:25;;;;;;;24.50;13.53;;;5.70;99.90;;;;;;5025147;28;20460;-69
2022/04/18 05:06:52;;;;;;;27.57;14.03;;;5.90;99.90;;;;;;5026976;28;20459;-70
2022/04/18 05:09:19;;;;;;;22.10;13.83;;;6.00;99.90;;;;;;5023597;28;20491;-69
2022/04/18 05:11:48;;;;;;;30.70;13.33;;;6.20;99.90;;;;;;5026768;28;20486;-70
2022/04/18 05:14:15;;;;;;;19.93;13.40;;;6.30;99.90;;;;;;5023593;28;20966;-70
2022/04/18 05:16:42;;;;;;;23.27;13.87;;;6.30;99.90;;;;;;5025642;28;20587;-71
2022/04/18 05:19:11;;;;;;;29.77;14.40;;;6.20;99.90;;;;;;5023422;28;20509;-71
2022/04/18 05:21:37;;;;;;;23.27;14.00;;;6.40;99.90;;;;;;5027211;28;20471;-70
2022/04/18 05:24:05;;;;;;;27.57;16.50;;;6.70;99.90;;;;;;5025841;28;20789;-70
2022/04/18 05:26:32;;;;;;;29.53;16.50;;;7.30;99.90;;;;;;5023666;28;20526;-70
2022/04/18 05:29:00;;;;;;;18.77;13.43;;;7.60;99.90;;;;;;5028015;28;21023;-70
2022/04/18 05:31:27;;;;;;;24.00;13.50;;;7.80;99.90;;;;;;5025685;28;20441;-71
2022/04/18 05:33:53;;;;;;;23.73;14.53;;;8.00;99.90;;;;;;5025041;28;20473;-70
2022/04/18 05:36:20;;;;;;;20.00;14.57;;;8.20;99.90;;;;;;5028097;28;20504;-71
2022/04/18 05:38:46;;;;;;;23.23;14.97;;;8.50;99.90;;;;;;5026121;28;25575;-71
2022/04/18 05:41:13;;;;;;;25.67;14.33;;;8.70;99.90;;;;;;5028562;28;20558;-70
2022/04/18 05:43:40;;;;;;;30.83;15.70;;;9.00;99.90;;;;;;5028771;28;20506;-71
2022/04/18 05:46:08;;;;;;;21.40;13.07;;;8.90;99.90;;;;;;5029625;28;20466;-71
2022/04/18 05:48:34;;;;;;;16.13;12.77;;;8.50;99.90;;;;;;5034510;28;21009;-72
2022/04/18 05:51:01;;;;;;;23.97;13.90;;;8.70;99.90;;;;;;5029270;28;20495;-71
2022/04/18 05:53:28;;;;;;;20.37;15.07;;;9.10;99.90;;;;;;5029828;28;20746;-70
2022/04/18 05:55:54;;;;;;;27.23;15.27;;;9.50;99.90;;;;;;5030399;28;20463;-70
2022/04/18 05:58:21;;;;;;;22.23;13.43;;;10.30;99.90;;;;;;5021440;28;20487;-71
2022/04/18 06:00:48;;;;;;;25.37;13.80;;;11.10;99.90;;;;;;5019422;28;20950;-71
2022/04/18 06:03:16;;;;;;;21.13;12.30;;;11.40;99.90;;;;;;5017118;28;20843;-70
2022/04/18 06:05:43;;;;;;;14.87;12.17;;;11.60;99.90;;;;;;5024261;28;20472;-71
2022/04/18 06:08:10;;;;;;;16.40;12.83;;;12.20;99.90;;;;;;5028234;28;20550;-71
2022/04/18 06:10:40;;;;;;;19.20;12.57;;;12.30;99.90;;;;;;5032585;28;20455;-70
2022/04/18 06:13:08;;;;;;;19.77;10.80;;;11.90;99.90;;;;;;5031520;28;20563;-71
2022/04/18 06:15:35;;;;;;;14.43;9.80;;;12.30;99.90;;;;;;5028540;28;20451;-71
2022/04/18 06:18:02;;;;;;;13.57;9.93;;;12.50;99.90;;;;;;5030181;28;20481;-71
2022/04/18 06:20:30;;;;;;;9.87;8.47;;;12.90;99.90;;;;;;5036985;28;20459;-71
2022/04/18 06:22:57;;;;;;;9.47;7.50;;;13.30;99.90;;;;;;5025192;28;20463;-71
2022/04/18 06:25:24;;;;;;;12.43;8.03;;;13.50;99.30;;;;;;5033802;28;20979;-72
2022/04/18 06:27:50;;;;;;;9.77;7.70;;;13.70;97.60;;;;;;5029996;28;20554;-72
2022/04/18 06:30:17;;;;;;;8.73;6.43;;;14.00;96.90;;;;;;5030333;28;20484;-70
2022/04/18 06:32:44;;;;;;;9.67;7.50;;;14.70;94.30;;;;;;5034007;28;20464;-71
2022/04/18 06:35:11;;;;;;;8.30;6.97;;;15.10;93.00;;;;;;5026545;28;20504;-71
2022/04/18 06:37:39;;;;;;;10.37;7.90;;;15.20;92.10;;;;;;5032114;28;20497;-70
2022/04/18 06:40:07;;;;;;;10.40;7.10;;;15.40;90.70;;;;;;5032595;28;20729;-72
2022/04/18 06:42:36;;;;;;;9.60;7.37;;;15.20;90.90;;;;;;5037250;28;20461;-71
2022/04/18 06:45:03;;;;;;;11.40;8.20;;;15.80;91.00;;;;;;5037264;28;20460;-72
2022/04/18 06:47:30;;;;;;;10.33;8.07;;;16.10;90.90;;;;;;5032392;28;20545;-72
2022/04/18 06:49:56;;;;;;;14.50;7.57;;;16.60;90.00;;;;;;5023010;28;20488;-72
2022/04/18 06:52:23;;;;;;;9.83;6.60;;;16.40;88.90;;;;;;5024118;28;20535;-71
2022/04/18 06:54:51;;;;;;;12.67;7.37;;;16.60;86.60;;;;;;5024204;28;22373;-72
2022/04/18 06:57:17;;;;;;;11.70;7.60;;;16.80;87.20;;;;;;5020728;28;20469;-71
2022/04/18 06:59:46;;;;;;;8.90;7.23;;;17.50;87.20;;;;;;5014765;28;20495;-71
2022/04/18 07:02:12;;;;;;;8.80;7.53;;;17.90;82.50;;;;;;5036240;28;20202;-72
2022/04/18 07:04:39;;;;;;;11.80;6.23;;;17.30;81.50;;;;;;5043388;28;20464;-72
2022/04/18 07:07:06;;;;;;;10.70;7.40;;;17.70;82.50;;;;;;5027923;28;20971;-72
2022/04/18 07:09:32;;;;;;;9.07;7.43;;;18.20;80.30;;;;;;5033039;28;21133;-72
2022/04/18 07:12:00;;;;;;;8.63;7.23;;;18.20;75.50;;;;;;5033349;28;20468;-72
2022/04/18 07:14:27;;;;;;;10.83;6.13;;;18.20;76.80;;;;;;5035325;28;20452;-72
2022/04/18 07:16:54;;;;;;;16.20;8.03;;;18.90;71.40;;;;;;5034347;28;20499;-71
2022/04/18 07:19:20;;;;;;;8.37;5.50;;;18.70;71.80;;;;;;5037060;28;20525;-72
2022/04/18 07:21:47;;;;;;;8.13;5.30;;;19.30;67.10;;;;;;5039662;28;20460;-73
2022/04/18 07:24:14;;;;;;;7.50;5.47;;;19.90;64.70;;;;;;5035408;28;21019;-71
2022/04/18 07:26:40;;;;;;;6.47;5.37;;;20.10;63.90;;;;;;5038346;28;20497;-72
2022/04/18 07:29:08;;;;;;;9.43;5.83;;;20.20;63.30;;;;;;5035089;28;21225;-72
2022/04/18 07:31:35;;;;;;;8.27;5.57;;;19.70;60.20;;;;;;5032683;28;20484;-72
2022/04/18 07:34:02;;;;;;;9.77;5.23;;;19.90;61.80;;;;;;5033320;28;20468;-72
2022/04/18 07:36:28;;;;;;;10.50;6.03;;;20.40;59.60;;;;;;5038133;28;20832;-72
2022/04/18 07:38:55;;;;;;;6.80;5.50;;;20.60;58.70;;;;;;5037505;28;20473;-73
2022/04/18 07:41:23;;;;;;;6.30;4.80;;;20.80;58.30;;;;;;5043489;28;20453;-69
2022/04/18 07:43:51;;;;;;;6.50;4.73;;;20.80;58.10;;;;;;5039225;28;20464;-71
2022/04/18 07:46:19;;;;;;;6.60;4.90;;;20.80;56.30;;;;;;5044603;28;20443;-70
2022/04/18 07:48:49;;;;;;;6.03;4.77;;;21.10;56.60;;;;;;5042589;28;20489;-70
2022/04/18 07:54:01;;;;;;;7.53;5.43;;;21.40;53.60;;;;;;5042941;28;20456;-71
2022/04/18 07:56:28;;;;;;;9.07;3.63;;;20.60;53.90;;;;;;5044415;28;20609;-71
2022/04/18 07:58:55;;;;;;;4.93;3.87;;;20.80;53.70;;;;;;5035125;28;20516;-70
2022/04/18 08:01:23;;;;;;;7.00;5.30;;;21.10;52.10;;;;;;5047752;28;20465;-71
2022/04/18 08:03:50;;;;;;;5.70;4.60;;;21.80;53.70;;;;;;5041173;28;20458;-71
2022/04/18 08:06:17;;;;;;;4.50;4.10;;;22.00;52.10;;;;;;5042431;28;20537;-71
2022/04/18 08:08:44;;;;;;;4.70;4.23;;;22.10;51.00;;;;;;5034325;28;20480;-71
2022/04/18 08:11:11;;;;;;;4.80;3.70;;;22.30;50.70;;;;;;5038016;28;20549;-70
2022/04/18 08:13:40;;;;;;;5.43;4.87;;;22.50;49.30;;;;;;5043489;28;20897;-71
2022/04/18 08:16:07;;;;;;;4.97;3.93;;;23.00;49.40;;;;;;5033522;28;20463;-71
2022/04/18 08:18:38;;;;;;;5.63;4.60;;;22.60;48.40;;;;;;5040795;28;20892;-70
2022/04/18 08:21:05;;;;;;;10.20;4.20;;;22.40;50.00;;;;;;5047454;28;20955;-71
2022/04/18 08:23:32;;;;;;;7.30;4.80;;;22.90;48.80;;;;;;5038196;28;20459;-71
2022/04/18 08:25:59;;;;;;;5.70;4.80;;;23.70;48.50;;;;;;5042336;28;20485;-71
2022/04/18 08:28:26;;;;;;;3.60;3.30;;;23.90;48.00;;;;;;5040831;28;20542;-70
2022/04/18 08:30:53;;;;;;;6.27;4.57;;;24.50;47.20;;;;;;5039385;28;20483;-70
2022/04/18 08:33:20;;;;;;;5.27;3.87;;;25.10;45.90;;;;;;5040673;28;20512;-70
2022/04/18 08:35:48;;;;;;;6.83;4.87;;;25.20;45.60;;;;;;5038510;28;20453;-71
2022/04/18 08:38:15;;;;;;;5.23;4.33;;;24.50;46.70;;;;;;5041920;28;20498;-72
2022/04/18 08:40:43;;;;;;;11.57;4.63;;;25.00;44.70;;;;;;5035638;28;20510;-70
2022/04/18 08:43:10;;;;;;;4.40;4.00;;;24.80;44.10;;;;;;5041926;28;20524;-70
2022/04/18 08:45:38;;;;;;;4.33;3.93;;;24.90;45.70;;;;;;5043529;28;20462;-70
2022/04/18 08:53:38;;;;;;;5.97;3.70;;;25.00;43.60;;;;;;5016055;28;20472;-70
2022/04/18 08:56:06;;;;;;;7.53;4.87;;;24.60;44.10;;;;;;5022185;28;20465;-70
2022/04/18 08:58:33;;;;;;;5.73;4.60;;;25.10;44.40;;;;;;5018688;28;20551;-71
2022/04/18 09:01:01;;;;;;;6.27;4.30;;;25.70;42.40;;;;;;5021161;28;20461;-70
2022/04/18 09:03:28;;;;;;;4.53;3.70;;;25.80;42.70;;;;;;5019839;28;20495;-71
2022/04/18 09:06:06;;;;;;;6.97;4.80;;;26.00;42.10;;;;;;5018554;28;20515;-70
2022/04/18 09:08:35;;;;;;;6.77;4.10;;;26.60;40.80;;;;;;5026887;28;20509;-71
2022/04/18 09:11:02;;;;;;;5.20;4.53;;;26.30;40.60;;;;;;5033932;28;20491;-71
2022/04/18 09:13:28;;;;;;;4.87;4.20;;;26.80;42.00;;;;;;5035528;28;21033;-71
2022/04/18 09:15:56;;;;;;;4.93;4.07;;;27.00;40.40;;;;;;5037551;28;20458;-73
2022/04/18 09:18:24;;;;;;;5.90;4.27;;;26.90;40.70;;;;;;5035112;28;20492;-72
2022/04/18 09:20:52;;;;;;;5.23;4.30;;;27.50;41.20;;;;;;5033673;28;20960;-71
2022/04/18 09:23:30;;;;;;;7.10;5.40;;;27.80;40.20;;;;;;5031403;28;20473;-70
2022/04/18 09:26:00;;;;;;;5.03;4.53;;;28.10;39.70;;;;;;5031965;28;20929;-71
2022/04/18 09:28:30;;;;;;;4.03;3.70;;;28.70;38.50;;;;;;5039644;28;20464;-70
2022/04/18 09:31:01;;;;;;;8.07;5.13;;;27.80;38.10;;;;;;5036005;28;20482;-70
2022/04/18 09:33:33;;;;;;;5.60;4.90;;;27.80;38.70;;;;;;5034806;28;20469;-69
2022/04/18 09:36:12;;;;;;;9.70;4.30;;;27.10;38.80;;;;;;5037861;28;20472;-71
2022/04/18 09:38:43;;;;;;;7.37;4.43;;;27.50;38.90;;;;;;5020714;28;20489;-71
2022/04/18 09:41:13;;;;;;;4.77;4.37;;;27.80;38.20;;;;;;5039620;28;20890;-71
2022/04/18 09:43:45;;;;;;;6.23;3.90;;;28.20;38.40;;;;;;5036539;28;21486;-71
2022/04/18 09:46:13;;;;;;;5.27;4.03;;;28.50;38.00;;;;;;5036257;28;20478;-71
2022/04/18 09:48:41;;;;;;;8.33;4.60;;;28.20;36.50;;;;;;5033626;28;20505;-72
2022/04/18 09:51:10;;;;;;;9.20;3.80;;;26.70;36.70;;;;;;5035752;28;20579;-70
2022/04/18 09:53:40;;;;;;;4.83;3.53;;;26.00;38.10;;;;;;5026073;28;20527;-70
2022/04/18 09:56:07;;;;;;;6.00;4.40;;;27.80;37.20;;;;;;5020518;28;20465;-70
2022/04/18 09:58:35;;;;;;;5.10;3.37;;;28.50;36.70;;;;;;5018315;28;20473;-69
2022/04/18 10:01:05;;;;;;;4.20;3.80;;;28.70;36.70;;;;;;5017576;28;20475;-70
2022/04/18 10:03:33;;;;;;;5.10;4.27;;;29.10;36.70;;;;;;5028904;28;20465;-70
2022/04/18 10:06:01;;;;;;;5.00;4.40;;;29.40;35.50;;;;;;5019257;28;20461;-71
2022/04/18 10:08:28;;;;;;;5.60;3.93;;;29.10;36.90;;;;;;5011787;28;20481;-71
2022/04/18 10:10:58;;;;;;;5.77;3.77;;;29.80;34.80;;;;;;5016335;28;28390;-72
2022/04/18 10:13:26;;;;;;;4.33;3.83;;;29.70;33.80;;;;;;5011378;28;20548;-71
2022/04/18 10:15:53;;;;;;;6.00;3.93;;;30.00;34.80;;;;;;5019377;28;20490;-72
2022/04/18 10:18:20;;;;;;;5.30;4.80;;;30.20;34.60;;;;;;5016541;28;20525;-71
2022/04/18 10:20:59;;;;;;;5.20;3.03;;;30.40;35.30;;;;;;5016125;28;20487;-70
2022/04/18 10:23:43;;;;;;;4.07;3.70;;;29.80;33.00;;;;;;5000555;28;20557;-71
2022/04/18 10:26:31;;;;;;;5.07;3.70;;;27.50;32.10;;;;;;5009077;28;21703;-71
2022/04/18 10:29:04;;;;;;;4.13;2.77;;;27.90;32.60;;;;;;5011070;28;20515;-72
2022/04/18 10:31:34;;;;;;;3.93;3.20;;;27.70;34.00;;;;;;5018469;28;20572;-70
2022/04/18 10:34:01;;;;;;;4.30;3.50;;;28.90;32.50;;;;;;5019254;28;20991;-70
2022/04/18 10:36:31;;;;;;;5.33;3.87;;;28.00;32.90;;;;;;5017146;28;20475;-72
2022/04/18 10:38:58;;;;;;;4.77;4.13;;;29.20;33.50;;;;;;5017186;28;21196;-71
2022/04/18 10:41:34;;;;;;;5.50;3.40;;;29.40;34.00;;;;;;5021873;28;21638;-70
2022/04/18 10:44:05;;;;;;;4.93;4.20;;;29.10;35.10;;;;;;5015446;28;20837;-70
2022/04/18 10:46:32;;;;;;;9.93;4.33;;;28.80;34.50;;;;;;5029204;28;20709;-71
2022/04/18 10:49:01;;;;;;;4.17;3.23;;;28.70;33.60;;;;;;5030031;28;20494;-72
2022/04/18 10:51:28;;;;;;;2.47;2.27;;;29.60;33.60;;;;;;5016991;28;20485;-71
2022/04/18 10:54:06;;;;;;;3.93;3.43;;;28.70;30.60;;;;;;5015044;28;20467;-71
2022/04/18 10:56:48;;;;;;;3.07;2.33;;;28.80;32.60;;;;;;5014633;28;20468;-69
2022/04/18 10:59:16;;;;;;;4.00;3.70;;;28.30;31.20;;;;;;5016380;28;20977;-70
2022/04/18 11:01:43;;;;;;;4.50;3.50;;;27.10;31.40;;;;;;5021243;28;20453;-68
2022/04/18 11:04:11;;;;;;;4.30;3.10;;;27.30;32.20;;;;;;5026824;28;20975;-70
2022/04/18 11:06:50;;;;;;;5.33;4.10;;;27.10;32.50;;;;;;5025409;28;20576;-71
2022/04/18 11:09:23;;;;;;;3.47;3.10;;;27.40;33.80;;;;;;5018236;28;20493;-70
2022/04/18 11:12:01;;;;;;;3.90;3.47;;;28.40;31.60;;;;;;5015953;28;20496;-71
2022/04/18 11:14:29;;;;;;;2.90;2.50;;;28.00;30.80;;;;;;5022575;28;20470;-70
2022/04/18 11:16:58;;;;;;;3.60;3.20;;;28.60;32.00;;;;;;5024860;28;20468;-71
2022/04/18 11:19:28;;;;;;;4.17;2.13;;;30.10;30.90;;;;;;5022876;28;20513;-70
2022/04/18 11:22:10;;;;;;;3.00;2.53;;;29.80;29.90;;;;;;5025379;28;20560;-70
2022/04/18 11:24:39;;;;;;;2.73;2.30;;;27.80;30.00;;;;;;5018471;28;20466;-70
2022/04/18 11:27:13;;;;;;;4.83;1.97;;;28.60;30.70;;;;;;5030271;28;20858;-69
2022/04/18 11:29:42;;;;;;;6.23;2.23;;;28.90;29.80;;;;;;5030540;28;20580;-69
2022/04/18 11:32:09;;;;;;;4.60;3.40;;;27.70;30.30;;;;;;5023095;28;20485;-71
2022/04/18 11:34:37;;;;;;;3.70;2.77;;;28.30;30.70;;;;;;5030594;28;20454;-70
2022/04/18 11:37:08;;;;;;;2.20;1.87;;;29.80;29.70;;;;;;5014800;28;20666;-70
2022/04/18 11:39:43;;;;;;;3.30;2.70;;;29.00;30.00;;;;;;5009454;28;20486;-71
2022/04/18 11:42:15;;;;;;;3.40;2.80;;;28.60;30.40;;;;;;5018727;28;21448;-69
2022/04/18 11:44:42;;;;;;;4.57;2.10;;;29.40;32.00;;;;;;5026461;28;20460;-70
2022/04/18 11:47:10;;;;;;;2.80;2.17;;;29.40;30.30;;;;;;5024122;28;20520;-69
2022/04/18 11:49:38;;;;;;;2.53;2.33;;;29.80;31.00;;;;;;5018715;28;20490;-70
2022/04/18 11:52:05;;;;;;;3.83;3.53;;;30.60;30.70;;;;;;5017522;28;20605;-71
2022/04/18 11:54:33;;;;;;;5.00;3.50;;;30.50;31.30;;;;;;5034490;28;21049;-71
2022/04/18 11:57:00;;;;;;;4.33;3.93;;;31.50;31.10;;;;;;5031481;28;20457;-70
2022/04/18 11:59:29;;;;;;;4.43;3.43;;;31.50;30.40;;;;;;5022175;28;20735;-71
2022/04/18 12:07:26;;;;;;;6.17;4.20;;;29.50;32.20;;;;;;5026334;28;20528;-72
2022/04/18 12:09:53;;;;;;;4.00;3.60;;;30.90;32.50;;;;;;5035547;28;20484;-71
2022/04/18 12:12:28;;;;;;;6.83;4.30;;;31.20;32.00;;;;;;5025145;28;20533;-69
2022/04/18 12:15:00;;;;;;;3.13;2.80;;;30.80;32.10;;;;;;5031447;28;20456;-70
2022/04/18 12:17:30;;;;;;;2.60;2.07;;;30.90;29.50;;;;;;5034589;28;20461;-70
2022/04/18 12:19:57;;;;;;;2.83;2.23;;;30.70;29.70;;;;;;5041317;28;20488;-71
2022/04/18 12:22:23;;;;;;;4.03;3.40;;;30.00;29.50;;;;;;5028146;28;20454;-70
2022/04/18 12:24:50;;;;;;;4.77;3.07;;;29.30;29.80;;;;;;5030734;28;20466;-71
2022/04/18 12:27:18;;;;;;;3.70;2.50;;;28.50;30.60;;;;;;5017811;28;20464;-70
2022/04/18 12:29:45;;;;;;;4.80;2.70;;;29.00;32.20;;;;;;5023105;28;20577;-70
2022/04/18 12:32:26;;;;;;;2.50;2.30;;;29.00;31.10;;;;;;5014676;28;21115;-71
2022/04/18 12:34:53;;;;;;;3.30;2.97;;;29.40;31.40;;;;;;5033756;28;20470;-70
2022/04/18 12:37:26;;;;;;;7.33;2.80;;;29.80;31.40;;;;;;5026310;28;20543;-71
2022/04/18 12:40:12;;;;;;;7.50;3.17;;;30.10;30.30;;;;;;5025226;28;20841;-70
2022/04/18 12:42:39;;;;;;;6.57;3.30;;;31.10;30.80;;;;;;5022382;28;20457;-70
2022/04/18 12:45:06;;;;;;;3.93;3.50;;;32.00;30.10;;;;;;5022076;28;20635;-70
2022/04/18 12:47:34;;;;;;;3.40;2.43;;;31.40;29.50;;;;;;5026594;28;20634;-71
2022/04/18 12:50:09;;;;;;;3.47;3.03;;;30.60;30.00;;;;;;5023903;28;20498;-72
2022/04/18 12:52:44;;;;;;;6.20;3.57;;;31.10;30.30;;;;;;5016756;28;20509;-72
2022/04/18 12:55:11;;;;;;;3.20;2.57;;;30.80;30.80;;;;;;5025385;28;20535;-72
2022/04/18 12:57:38;;;;;;;3.20;2.83;;;30.60;30.00;;;;;;5020104;28;20454;-71
2022/04/18 13:00:14;;;;;;;4.13;3.70;;;31.30;29.40;;;;;;5008654;28;20793;-71
2022/04/18 13:02:57;;;;;;;5.53;2.70;;;30.60;30.00;;;;;;5020323;28;21026;-71
2022/04/18 13:05:26;;;;;;;3.27;2.80;;;30.00;29.80;;;;;;5022423;28;21024;-70
2022/04/18 13:07:53;;;;;;;4.30;2.90;;;30.10;29.90;;;;;;5023106;28;20468;-72
2022/04/18 13:10:28;;;;;;;3.50;2.50;;;30.40;30.30;;;;;;5020885;28;20514;-72